Time;durP1;ratioP1;P1;durP2;ratioP2;P2;SDS_P1;SDS_P2;PMS_P1;PMS_P2;Temp;Humidity;BMP_temperature;BMP_pressure;BME280_temperature;BME280_humidity;BME280_pressure;Samples;Min_cycle;Max_cycle;Signal;HPM_P1;HPM_P2
2024/03/22 00:00:29;;;;;;;;;33.80;30.40;;;;;15.61;58.97;102233.44;2009465;28;3608541;-72
2024/03/22 00:01:41;;;;;;;;;31.67;28.00;;;;;15.59;58.97;102237.94;1999866;28;3606540;-72
2024/03/22 00:02:53;;;;;;;;;29.00;28.33;;;;;15.59;58.88;102229.09;1992517;28;3600255;-72
2024/03/22 00:04:05;;;;;;;;;32.60;31.40;;;;;15.62;58.74;102236.97;2004645;28;3603663;-72
2024/03/22 00:05:21;;;;;;;;;33.25;30.63;;;;;15.62;58.89;102239.63;1997691;28;3601230;-72
2024/03/22 00:06:32;;;;;;;;;36.00;32.00;;;;;15.62;58.74;102239.63;1998457;28;3612794;-72
2024/03/22 00:07:44;;;;;;;;;35.60;28.20;;;;;15.60;58.73;102236.16;1991554;28;3603331;-72
2024/03/22 00:08:56;;;;;;;;;37.20;32.20;;;;;15.56;58.89;102232.72;1999917;28;3620068;-72
2024/03/22 00:10:08;;;;;;;;;36.00;29.00;;;;;15.51;58.70;102227.56;1999800;28;3621087;-72
2024/03/22 00:11:20;;;;;;;;;30.80;26.40;;;;;15.57;58.78;102237.13;2006235;28;3576266;-72
2024/03/22 00:12:32;;;;;;;;;37.80;32.20;;;;;15.56;58.97;102240.66;2012517;28;3596029;-72
2024/03/22 00:13:44;;;;;;;;;35.67;32.00;;;;;15.55;58.72;102238.06;1998135;28;3590848;-72
2024/03/22 00:14:56;;;;;;;;;35.60;32.40;;;;;15.57;58.85;102246.84;2004846;28;3613733;-72
2024/03/22 00:16:07;;;;;;;;;38.00;30.50;;;;;15.54;59.05;102239.84;2007244;28;2506501;-72
2024/03/22 00:17:19;;;;;;;;;35.60;31.40;;;;;15.59;58.97;102250.31;1994557;28;3609578;-72
2024/03/22 00:18:31;;;;;;;;;32.00;30.80;;;;;15.57;58.80;102241.53;2005339;28;3597559;-72
2024/03/22 00:19:43;;;;;;;;;35.33;31.33;;;;;15.57;58.85;102241.53;2009687;28;3613100;-72
2024/03/22 00:20:56;;;;;;;;;30.00;27.71;;;;;15.56;58.88;102235.38;2008424;28;3587048;-72
2024/03/22 00:22:08;;;;;;;;;39.00;32.33;;;;;15.59;58.88;102239.72;1996692;28;3601717;-72
2024/03/22 00:23:20;;;;;;;;;24.33;22.67;;;;;15.57;58.56;102241.53;1989154;28;3585656;-72
2024/03/22 00:24:32;;;;;;;;;31.40;23.80;;;;;15.57;58.79;102236.25;2003250;28;3593932;-72
2024/03/22 00:25:44;;;;;;;;;36.00;30.40;;;;;15.60;58.70;102244.09;2005335;28;3608541;-72
2024/03/22 00:26:56;;;;;;;;;28.60;25.20;;;;;15.58;58.75;102241.50;2011523;28;3592952;-72
2024/03/22 00:28:08;;;;;;;;;32.40;28.80;;;;;15.56;58.72;102238.03;2001031;28;3594061;-72
2024/03/22 00:29:21;;;;;;;;;37.00;28.88;;;;;15.55;58.32;102232.78;2008240;28;3623156;-72
2024/03/22 00:30:34;;;;;;;;;36.20;29.00;;;;;15.55;58.93;102235.44;2003479;28;3606469;-72
2024/03/22 00:31:45;;;;;;;;;39.60;31.40;;;;;15.55;58.75;102240.72;1986958;28;3607495;-72
2024/03/22 00:32:57;;;;;;;;;34.80;29.80;;;;;15.55;58.89;102238.94;1997821;28;3587800;-72
2024/03/22 00:34:09;;;;;;;;;30.60;26.80;;;;;15.49;58.84;102233.81;2004376;28;3574240;-72
2024/03/22 00:35:23;;;;;;;;;32.63;28.75;;;;;15.51;59.07;102231.97;2000004;28;3601250;-72
2024/03/22 00:36:34;;;;;;;;;30.00;28.33;;;;;15.52;58.86;102231.97;1983158;28;3588769;-72
2024/03/22 00:37:45;;;;;;;;;31.00;27.80;;;;;15.52;58.76;102229.31;1984971;28;2845198;-72
2024/03/22 00:38:57;;;;;;;;;28.60;24.20;;;;;15.51;58.84;102224.91;2025949;28;3574170;-72
2024/03/22 00:40:10;;;;;;;;;31.80;26.20;;;;;15.48;58.60;102211.75;2034496;28;3598120;-72
2024/03/22 00:41:21;;;;;;;;;25.00;24.33;;;;;15.51;58.91;102224.91;1981952;28;3594013;-72
2024/03/22 00:42:35;;;;;;;;;35.25;28.75;;;;;15.51;58.95;102216.09;2001228;28;3605483;-72
2024/03/22 00:43:47;;;;;;;;;29.60;23.60;;;;;15.54;58.92;102216.00;1997206;28;3585693;-72
2024/03/22 00:44:59;;;;;;;;;36.40;32.00;;;;;15.54;58.78;102210.69;1999243;28;3611123;-72
2024/03/22 00:46:11;;;;;;;;;19.33;19.33;;;;;15.53;59.10;102204.53;2001026;28;3558617;-72
2024/03/22 00:47:24;;;;;;;;;34.13;28.63;;;;;15.54;59.04;102205.41;2001633;28;3597078;-72
2024/03/22 00:48:36;;;;;;;;;33.67;29.67;;;;;15.53;58.77;102209.81;2003653;28;3604481;-72
2024/03/22 00:49:48;;;;;;;;;31.40;29.60;;;;;15.53;58.65;102214.28;1997152;28;3591870;-72
2024/03/22 00:51:00;;;;;;;;;31.20;27.80;;;;;15.48;58.89;102200.31;2003912;28;3591867;-72
2024/03/22 00:52:11;;;;;;;;;30.20;27.00;;;;;15.48;58.88;102197.66;1987658;28;2838849;-72
2024/03/22 00:53:23;;;;;;;;;29.33;23.33;;;;;15.46;59.59;102195.03;2032225;28;3596033;-72
2024/03/22 00:54:35;;;;;;;;;29.00;22.00;;;;;15.46;58.76;102191.53;2003527;28;3588766;-72
2024/03/22 00:55:50;;;;;;;;;32.50;28.50;;;;;15.46;59.00;102200.34;2002310;28;2506530;-72
2024/03/22 00:57:01;;;;;;;;;26.50;21.50;;;;;15.45;59.26;102195.97;1977224;28;2854420;-72
2024/03/22 00:58:12;;;;;;;;;34.50;28.50;;;;;15.44;59.08;102193.34;1979784;28;2506568;-72
2024/03/22 00:59:24;;;;;;;;;32.00;27.60;;;;;15.41;59.27;102194.31;2005100;28;3601264;-72
2024/03/22 01:00:37;;;;;;;;;30.80;26.60;;;;;15.40;59.31;102192.59;2023366;28;3598522;-72
2024/03/22 01:01:49;;;;;;;;;32.00;27.67;;;;;15.39;59.14;102196.13;1985087;28;3602366;-72
2024/03/22 01:03:01;;;;;;;;;30.33;22.00;;;;;15.38;59.18;102200.56;2006013;28;3598199;-72
2024/03/22 01:04:13;;;;;;;;;26.67;23.00;;;;;15.38;59.46;102205.00;2002707;28;3573153;-72
2024/03/22 01:05:26;;;;;;;;;31.00;28.88;;;;;15.35;59.41;102202.44;1995571;28;3609574;-72
2024/03/22 01:06:39;;;;;;;;;28.40;23.20;;;;;15.34;59.70;102204.22;1995259;28;3577323;-72
2024/03/22 01:07:50;;;;;;;;;28.50;25.50;;;;;15.29;59.67;102201.72;1983550;28;2850244;-72
2024/03/22 01:09:04;;;;;;;;;29.25;25.75;;;;;15.28;59.75;102192.03;2008152;28;3591890;-72
2024/03/22 01:10:14;;;;;;;;;29.50;22.50;;;;;15.27;59.64;102197.38;2008064;28;2851310;-72
2024/03/22 01:11:26;;;;;;;;;32.00;28.80;;;;;15.25;59.67;102191.25;2010856;28;3592911;-73
2024/03/22 01:12:39;;;;;;;;;29.60;27.00;;;;;15.23;59.70;102201.91;2028554;28;3591866;-72
2024/03/22 01:13:50;;;;;;;;;29.33;29.33;;;;;15.23;59.71;102201.91;1973576;28;3596184;-72
2024/03/22 01:15:03;;;;;;;;;36.20;29.80;;;;;15.21;59.85;102192.28;2005585;28;3599155;-72
2024/03/22 01:16:15;;;;;;;;;31.33;27.67;;;;;15.18;59.93;102196.75;1990297;28;3600234;-72
2024/03/22 01:17:27;;;;;;;;;35.60;30.00;;;;;15.16;60.04;102197.72;2009273;28;3608521;-72
2024/03/22 01:18:38;;;;;;;;;27.80;23.20;;;;;15.17;59.97;102194.13;1987521;28;2838803;-72
2024/03/22 01:19:50;;;;;;;;;34.20;30.00;;;;;15.13;60.01;102185.41;2023826;28;3597085;-72
2024/03/22 01:21:01;;;;;;;;;33.50;30.50;;;;;15.12;59.88;102188.09;2021736;28;2848177;-72
2024/03/22 01:22:13;;;;;;;;;32.00;28.60;;;;;15.10;60.11;102187.28;2005422;28;3585605;-72
2024/03/22 01:23:25;;;;;;;;;31.60;27.40;;;;;15.10;59.86;102189.94;2006539;28;3589113;-72
2024/03/22 01:24:38;;;;;;;;;34.75;29.75;;;;;15.06;59.94;102184.72;2004016;28;3612731;-72
2024/03/22 01:25:52;;;;;;;;;30.88;26.13;;;;;15.04;60.09;102186.53;1990802;28;3589791;-72
2024/03/22 01:27:03;;;;;;;;;31.00;29.00;;;;;15.01;60.53;102181.34;2000854;28;2854434;-72
2024/03/22 01:28:15;;;;;;;;;31.00;27.20;;;;;15.02;60.50;102190.13;1996527;28;3579367;-72
2024/03/22 01:29:30;;;;;;;;;37.67;29.33;;;;;14.98;60.64;102175.25;2011971;28;3603344;-72
2024/03/22 01:30:43;;;;;;;;;36.33;31.00;;;;;14.98;60.50;102181.44;1983788;28;3601352;-72
2024/03/22 01:31:53;;;;;;;;;37.50;29.00;;;;;14.96;60.55;102177.97;1982807;28;2506512;-72
2024/03/22 01:33:07;;;;;;;;;40.25;31.13;;;;;14.93;60.68;102184.22;2000906;28;3631907;-72
2024/03/22 01:34:19;;;;;;;;;40.40;32.80;;;;;14.91;60.50;102179.88;2008328;28;3581551;-72
2024/03/22 01:35:31;;;;;;;;;32.00;28.00;;;;;14.90;60.63;102178.13;1997005;28;3591942;-72
2024/03/22 01:36:43;;;;;;;;;33.60;28.80;;;;;14.84;60.67;102174.69;2003757;28;3592925;-72
2024/03/22 01:37:55;;;;;;;;;35.20;30.80;;;;;14.84;60.64;102181.81;2012493;28;3600227;-72
2024/03/22 01:39:06;;;;;;;;;31.20;30.20;;;;;14.84;60.83;102181.81;1994517;28;2850366;-72
2024/03/22 01:40:17;;;;;;;;;38.50;30.00;;;;;14.81;60.83;102180.09;2027504;28;2506535;-72
2024/03/22 01:41:30;;;;;;;;;35.13;31.63;;;;;14.77;60.86;102173.13;2003289;28;3605439;-72
2024/03/22 01:42:41;;;;;;;;;33.50;26.00;;;;;14.74;61.11;102174.09;2004147;28;2865902;-73
2024/03/22 01:43:52;;;;;;;;;41.50;30.50;;;;;14.73;61.36;102177.66;2000826;28;2506473;-72
2024/03/22 01:45:04;;;;;;;;;35.40;32.60;;;;;14.71;61.05;102171.56;2006073;28;3582576;-72
2024/03/22 01:46:16;;;;;;;;;35.33;28.00;;;;;14.71;61.18;102174.19;2001826;28;3604396;-72
2024/03/22 01:47:28;;;;;;;;;35.80;32.00;;;;;14.66;61.35;102172.56;2002917;28;3605432;-72
2024/03/22 01:48:40;;;;;;;;;44.40;33.00;;;;;14.65;61.19;102168.19;2006426;28;3630442;-72
2024/03/22 01:49:54;;;;;;;;;30.20;28.40;;;;;14.64;61.30;102172.63;2000248;28;3583561;-72
2024/03/22 01:51:06;;;;;;;;;31.00;26.67;;;;;14.61;61.55;102168.28;1990388;28;3586673;-72
2024/03/22 01:52:18;;;;;;;;;42.20;35.20;;;;;14.57;61.36;102163.97;2005788;28;3573102;-72
2024/03/22 01:53:30;;;;;;;;;35.00;29.00;;;;;14.56;61.63;102164.91;2002886;28;3597146;-72
2024/03/22 01:54:42;;;;;;;;;35.00;32.00;;;;;14.55;61.70;102163.16;1995692;28;2854422;-72
2024/03/22 01:55:53;;;;;;;;;39.00;31.00;;;;;14.53;61.87;102159.69;1993500;28;2846048;-72
2024/03/22 01:57:05;;;;;;;;;39.80;32.20;;;;;14.54;61.76;102160.56;2015695;28;3625262;-72
2024/03/22 01:58:18;;;;;;;;;39.40;34.00;;;;;14.47;61.68;102155.41;2003080;28;3586681;-72
2024/03/22 01:59:30;;;;;;;;;33.33;26.67;;;;;14.47;61.97;102152.75;2009580;28;3604438;-72
2024/03/22 02:00:41;;;;;;;;;35.00;32.00;;;;;14.45;61.51;102151.94;1988206;28;2863802;-72
2024/03/22 02:01:53;;;;;;;;;38.60;30.20;;;;;14.42;61.73;102146.72;2003765;28;3613275;-72
2024/03/22 02:03:05;;;;;;;;;34.00;31.20;;;;;14.42;62.00;102151.16;2006396;28;3591957;-72
2024/03/22 02:04:17;;;;;;;;;38.33;31.67;;;;;14.38;61.76;102147.72;2010433;28;3601273;-72
2024/03/22 02:05:29;;;;;;;;;36.20;32.00;;;;;14.36;61.87;102142.50;2008977;28;3589804;-72
2024/03/22 02:06:40;;;;;;;;;39.33;33.00;;;;;14.35;62.26;102145.16;2005560;28;3582532;-72
2024/03/22 02:07:53;;;;;;;;;39.80;32.40;;;;;14.34;62.32;102151.38;2003425;28;3611681;-72
2024/03/22 02:09:05;;;;;;;;;43.80;35.60;;;;;14.34;62.27;102160.19;1997117;28;3586709;-72
2024/03/22 02:10:17;;;;;;;;;36.00;33.00;;;;;14.31;61.93;102154.09;1999315;28;3596430;-72
2024/03/22 02:11:29;;;;;;;;;42.00;35.20;;;;;14.27;62.08;102148.88;1991194;28;3598373;-72
2024/03/22 02:12:41;;;;;;;;;39.33;33.00;;;;;14.26;61.99;102148.91;1998927;28;3601281;-72
2024/03/22 02:13:51;;;;;;;;;37.50;32.50;;;;;14.24;62.31;102146.31;1990691;28;2855513;-72
2024/03/22 02:15:04;;;;;;;;;40.00;33.00;;;;;14.25;62.34;102153.34;2005810;28;3599168;-72
2024/03/22 02:16:15;;;;;;;;;42.00;32.67;;;;;14.22;62.33;102149.91;2015264;28;3610703;-72
2024/03/22 02:17:27;;;;;;;;;48.00;37.20;;;;;14.20;62.46;102151.75;1985497;28;3590158;-72
2024/03/22 02:18:39;;;;;;;;;42.80;37.00;;;;;14.20;62.76;102157.03;1998664;28;3596081;-72
2024/03/22 02:19:51;;;;;;;;;45.00;35.00;;;;;14.17;62.77;102150.03;2009809;28;3587718;-72
2024/03/22 02:21:03;;;;;;;;;42.20;35.80;;;;;14.17;62.63;102147.41;2008966;28;3591938;-72
2024/03/22 02:22:15;;;;;;;;;47.80;34.40;;;;;14.11;62.40;102147.53;2004210;28;3603313;-72
2024/03/22 02:23:35;;;;;;;;;48.20;38.00;;;;;14.13;62.67;102151.88;2014572;28;3597078;-72
2024/03/22 02:24:45;;;;;;;;;47.00;37.00;;;;;14.10;62.62;102144.03;1984058;28;2850259;-72
2024/03/22 02:25:57;;;;;;;;;47.40;37.40;;;;;14.10;62.98;102145.81;1995627;28;3597063;-72
2024/03/22 02:27:09;;;;;;;;;44.00;34.60;;;;;14.08;63.19;102151.13;2021721;28;3614230;-72
2024/03/22 02:28:21;;;;;;;;;49.60;39.60;;;;;14.03;62.62;102143.31;2000229;28;3590857;-72
2024/03/22 02:29:33;;;;;;;;;36.67;31.33;;;;;14.02;63.04;102143.34;2002170;28;3615885;-72
2024/03/22 02:30:45;;;;;;;;;52.00;40.80;;;;;14.04;63.06;102147.72;2003229;28;3604358;-72
2024/03/22 02:31:58;;;;;;;;;52.40;39.40;;;;;14.00;62.97;102145.19;2000037;28;3591913;-72
2024/03/22 02:33:08;;;;;;;;;47.00;39.00;;;;;14.01;63.06;102146.91;1994411;28;2854404;-72
2024/03/22 02:34:20;;;;;;;;;35.80;35.00;;;;;14.00;62.81;102139.91;2008994;28;3584589;-72
2024/03/22 02:35:32;;;;;;;;;47.60;38.00;;;;;13.98;63.39;102145.19;2007044;28;3607539;-72
2024/03/22 02:36:44;;;;;;;;;48.40;38.00;;;;;13.95;63.11;102138.22;2008044;28;3580405;-72
2024/03/22 02:37:58;;;;;;;;;49.00;37.00;;;;;13.96;63.12;102139.09;2007188;28;3600202;-72
2024/03/22 02:39:09;;;;;;;;;48.00;41.50;;;;;13.95;63.23;102138.22;1978891;28;2850330;-72
2024/03/22 02:40:21;;;;;;;;;53.00;40.80;;;;;13.92;63.52;102127.75;1981757;28;3603442;-72
2024/03/22 02:41:33;;;;;;;;;52.60;42.40;;;;;13.92;63.52;102126.88;1998731;28;3600257;-72
2024/03/22 02:42:45;;;;;;;;;45.60;38.00;;;;;13.90;63.38;102126.88;2000518;28;3597066;-72
2024/03/22 02:43:57;;;;;;;;;53.60;42.00;;;;;13.90;63.39;102124.25;2004069;28;3600550;-72
2024/03/22 02:45:09;;;;;;;;;51.80;39.20;;;;;13.87;63.36;102116.41;1990245;28;3611653;-72
2024/03/22 02:46:21;;;;;;;;;45.60;37.80;;;;;13.83;63.68;102106.81;1990727;28;3601245;-72
2024/03/22 02:47:33;;;;;;;;;55.40;41.00;;;;;13.81;63.58;102108.63;1995597;28;3606544;-72
2024/03/22 02:48:45;;;;;;;;;45.20;38.40;;;;;13.83;63.60;102109.44;1991905;28;3583054;-72
2024/03/22 02:49:57;;;;;;;;;51.20;39.80;;;;;13.84;63.66;102114.72;1999419;28;3610624;-72
2024/03/22 02:51:09;;;;;;;;;51.80;41.80;;;;;13.81;63.29;102104.22;2012535;28;3599167;-72
2024/03/22 02:52:21;;;;;;;;;53.80;41.80;;;;;13.81;63.82;102106.84;2013194;28;3609611;-72
2024/03/22 02:53:33;;;;;;;;;50.60;41.20;;;;;13.80;63.34;102109.53;2013857;28;3600255;-72
2024/03/22 02:54:45;;;;;;;;;54.20;41.60;;;;;13.79;63.87;102110.44;2006418;28;3599511;-72
2024/03/22 02:55:59;;;;;;;;;49.20;37.40;;;;;13.81;63.65;102106.84;1995180;28;3615129;-72
2024/03/22 02:57:10;;;;;;;;;55.00;42.00;;;;;13.78;63.93;102100.78;1986825;28;2856487;-72
2024/03/22 02:58:22;;;;;;;;;55.00;41.20;;;;;13.81;63.77;102108.63;2011857;28;3618982;-72
2024/03/22 02:59:34;;;;;;;;;51.80;40.60;;;;;13.81;63.93;102112.13;2004747;28;3600281;-72
2024/03/22 03:00:46;;;;;;;;;49.60;39.80;;;;;13.80;63.89;102110.38;2005160;28;3611649;-72
2024/03/22 03:01:58;;;;;;;;;56.80;44.40;;;;;13.78;63.75;102098.97;2009120;28;3598115;-72
2024/03/22 03:03:10;;;;;;;;;61.00;45.40;;;;;13.78;63.86;102108.72;1998680;28;3607543;-72
2024/03/22 03:04:22;;;;;;;;;54.80;42.80;;;;;13.78;63.86;102098.16;1999509;28;3614809;-72
2024/03/22 03:05:37;;;;;;;;;54.20;42.00;;;;;13.79;63.92;102105.16;1994378;28;3602319;-72
2024/03/22 03:06:47;;;;;;;;;47.00;37.50;;;;;13.78;63.80;102100.78;1979202;28;2832534;-72
2024/03/22 03:07:59;;;;;;;;;57.80;43.00;;;;;13.76;64.10;102099.94;2010490;28;3610599;-72
2024/03/22 03:09:12;;;;;;;;;49.80;40.80;;;;;13.75;63.88;102100.84;2014972;28;3597171;-72
2024/03/22 03:10:22;;;;;;;;;55.50;43.50;;;;;13.76;64.14;102099.94;1983381;28;2859629;-72
2024/03/22 03:11:34;;;;;;;;;49.40;41.20;;;;;13.73;64.03;102101.75;2004492;28;3594009;-72
2024/03/22 03:12:46;;;;;;;;;50.40;41.40;;;;;13.70;64.17;102091.25;2014175;28;3598129;-72
2024/03/22 03:13:58;;;;;;;;;53.20;42.80;;;;;13.70;64.08;102099.16;2013170;28;3598124;-72
2024/03/22 03:15:10;;;;;;;;;49.00;41.00;;;;;13.70;63.78;102093.03;2013211;28;3599178;-72
2024/03/22 03:16:22;;;;;;;;;53.33;39.00;;;;;13.67;64.18;102088.69;2014917;28;3598593;-72
2024/03/22 03:17:34;;;;;;;;;49.40;42.00;;;;;13.64;64.09;102086.13;1992108;28;3593007;-72
2024/03/22 03:18:46;;;;;;;;;43.80;37.20;;;;;13.67;63.97;102093.97;2003741;28;3597100;-72
2024/03/22 03:19:58;;;;;;;;;51.80;40.00;;;;;13.64;64.18;102091.41;2011170;28;3596029;-72
2024/03/22 03:21:10;;;;;;;;;46.40;38.80;;;;;13.62;64.23;102082.66;2009356;28;3587724;-72
2024/03/22 03:22:22;;;;;;;;;52.00;40.20;;;;;13.62;64.24;102082.66;2012988;28;3610624;-72
2024/03/22 03:23:34;;;;;;;;;57.80;43.40;;;;;13.59;64.19;102094.16;2006569;28;3608939;-72
2024/03/22 03:24:46;;;;;;;;;51.20;40.20;;;;;13.58;64.16;102081.84;2008274;28;3591863;-72
2024/03/22 03:25:59;;;;;;;;;53.86;43.43;;;;;13.56;64.13;102080.13;2000722;28;3596113;-72
2024/03/22 03:27:11;;;;;;;;;51.40;40.80;;;;;13.55;64.15;102083.69;2006639;28;3601261;-72
2024/03/22 03:28:25;;;;;;;;;52.20;43.40;;;;;13.52;64.00;102081.97;2007194;28;3598129;-72
2024/03/22 03:29:36;;;;;;;;;57.00;42.50;;;;;13.53;64.17;102086.34;1987028;28;2881526;-72
2024/03/22 03:30:48;;;;;;;;;55.00;42.20;;;;;13.52;64.38;102086.38;2002474;28;3620050;-72
2024/03/22 03:31:59;;;;;;;;;53.20;41.00;;;;;13.49;64.57;102085.56;1987836;28;2871081;-72
2024/03/22 03:33:11;;;;;;;;;45.80;39.60;;;;;13.47;64.77;102079.44;2022629;28;3599193;-72
2024/03/22 03:34:23;;;;;;;;;55.40;42.80;;;;;13.45;64.37;102075.09;2036380;28;3616928;-72
2024/03/22 03:35:35;;;;;;;;;52.80;42.40;;;;;13.43;64.62;102071.63;2008708;28;3597075;-72
2024/03/22 03:36:47;;;;;;;;;54.20;42.60;;;;;13.41;64.58;102069.00;2009475;28;3602343;-72
2024/03/22 03:37:59;;;;;;;;;54.80;43.40;;;;;13.39;64.53;102071.69;2011607;28;3594999;-72
2024/03/22 03:39:11;;;;;;;;;55.40;42.60;;;;;13.39;64.30;102070.81;2010154;28;3608569;-72
2024/03/22 03:40:24;;;;;;;;;48.00;36.60;;;;;13.38;64.79;102061.19;2003627;28;3617910;-72
2024/03/22 03:41:35;;;;;;;;;58.00;43.00;;;;;13.38;64.35;102069.09;1979868;28;2864872;-72
2024/03/22 03:42:46;;;;;;;;;57.50;46.00;;;;;13.37;64.42;102067.34;1986086;28;2859057;-72
2024/03/22 03:43:58;;;;;;;;;51.40;39.20;;;;;13.34;64.55;102056.84;2013983;28;3607533;-72
2024/03/22 03:45:10;;;;;;;;;55.67;41.33;;;;;13.34;64.57;102067.41;2005928;28;3635677;-72
2024/03/22 03:46:22;;;;;;;;;51.60;43.40;;;;;13.32;64.86;102063.97;2010478;28;3594988;-72
2024/03/22 03:47:34;;;;;;;;;54.00;43.00;;;;;13.32;64.63;102063.97;1978046;28;2862211;-72
2024/03/22 03:48:44;;;;;;;;;57.50;46.50;;;;;13.28;64.50;102058.72;1986570;28;2849192;-72
2024/03/22 03:49:56;;;;;;;;;51.80;40.40;;;;;13.27;64.37;102062.31;2012915;28;3593953;-72
2024/03/22 03:51:08;;;;;;;;;50.60;40.80;;;;;13.27;64.81;102061.44;2003771;28;3613725;-72
2024/03/22 03:52:20;;;;;;;;;49.80;41.60;;;;;13.25;64.71;102063.25;2014763;28;3601279;-72
2024/03/22 03:53:32;;;;;;;;;53.20;41.40;;;;;13.26;64.95;102065.00;2011010;28;3604370;-72
2024/03/22 03:54:44;;;;;;;;;50.60;39.60;;;;;13.25;64.78;102057.97;2012597;28;3601638;-72
2024/03/22 03:55:56;;;;;;;;;45.20;36.80;;;;;13.23;64.62;102065.06;2013126;28;3593978;-72
2024/03/22 03:57:08;;;;;;;;;50.80;42.20;;;;;13.21;64.89;102061.59;2001851;28;3592906;-72
2024/03/22 03:58:20;;;;;;;;;50.20;40.60;;;;;13.21;64.40;102057.16;2004336;28;3592903;-72
2024/03/22 03:59:32;;;;;;;;;50.40;38.00;;;;;13.19;65.09;102056.31;2005198;28;3591896;-72
2024/03/22 04:00:44;;;;;;;;;49.80;36.80;;;;;13.18;64.71;102053.72;2004907;28;3609657;-72
2024/03/22 04:01:56;;;;;;;;;50.60;40.40;;;;;13.15;64.86;102047.63;1997525;28;3596020;-72
2024/03/22 04:03:08;;;;;;;;;53.40;43.60;;;;;13.15;64.90;102046.75;2003748;28;3597063;-72
2024/03/22 04:04:20;;;;;;;;;50.40;42.60;;;;;13.15;64.86;102041.47;2012516;28;3616901;-72
2024/03/22 04:05:32;;;;;;;;;47.60;39.00;;;;;13.15;64.77;102044.09;2003734;28;3577292;-72
2024/03/22 04:06:44;;;;;;;;;47.80;37.60;;;;;13.15;64.67;102046.75;2021012;28;3592917;-72
2024/03/22 04:07:56;;;;;;;;;50.40;38.20;;;;;13.11;64.72;102039.81;1983258;28;3614774;-72
2024/03/22 04:09:08;;;;;;;;;47.80;38.40;;;;;13.13;64.97;102043.28;1995307;28;3585677;-72
2024/03/22 04:10:20;;;;;;;;;45.67;36.67;;;;;13.09;65.19;102036.34;1975443;28;3616298;-72
2024/03/22 04:11:32;;;;;;;;;50.40;38.20;;;;;13.12;65.14;102038.88;2002543;28;3593007;-72
2024/03/22 04:12:44;;;;;;;;;53.67;38.33;;;;;13.09;64.84;102036.34;1999800;28;3600318;-72
2024/03/22 04:13:55;;;;;;;;;46.50;38.00;;;;;13.05;65.10;102031.13;1968895;28;2844015;-72
2024/03/22 04:15:07;;;;;;;;;50.80;39.00;;;;;13.08;65.20;102034.59;1996131;28;3602306;-72
2024/03/22 04:16:19;;;;;;;;;39.40;34.40;;;;;13.03;65.21;102027.66;2024855;28;3601229;-72
2024/03/22 04:17:30;;;;;;;;;49.00;40.00;;;;;13.03;65.37;102027.66;1986791;28;2862780;-72
2024/03/22 04:18:42;;;;;;;;;48.60;38.20;;;;;13.02;65.01;102025.91;1996940;28;3610628;-72
2024/03/22 04:19:54;;;;;;;;;38.80;35.60;;;;;13.01;64.97;102029.44;2005214;28;3601277;-72
2024/03/22 04:21:06;;;;;;;;;44.00;37.20;;;;;13.03;64.96;102032.94;2008425;28;3596081;-72
2024/03/22 04:22:18;;;;;;;;;47.40;36.20;;;;;13.03;65.09;102045.25;2004781;28;3595023;-72
2024/03/22 04:23:30;;;;;;;;;45.67;37.00;;;;;12.98;64.97;102034.81;2002578;28;3595523;-72
2024/03/22 04:24:42;;;;;;;;;48.60;36.20;;;;;12.99;65.02;102033.03;2003049;28;3607514;-72
2024/03/22 04:25:59;;;;;;;;;46.80;37.20;;;;;13.00;65.31;102037.41;1999146;28;3593982;-72
2024/03/22 04:27:10;;;;;;;;;43.00;37.00;;;;;12.96;65.24;102031.31;1989123;28;3598132;-72
2024/03/22 04:28:24;;;;;;;;;43.00;34.67;;;;;12.95;65.25;102029.56;2001425;28;3579407;-72
2024/03/22 04:29:34;;;;;;;;;36.50;32.50;;;;;12.92;65.23;102024.38;2010772;28;2861732;-72
2024/03/22 04:31:11;;;;;;;;;44.80;35.40;;;;;12.96;65.36;102035.72;2002764;28;3600196;-72
2024/03/22 04:32:21;;;;;;;;;41.50;34.50;;;;;12.92;65.21;102029.63;1979658;28;2860173;-72
2024/03/22 04:33:34;;;;;;;;;46.20;36.20;;;;;12.90;65.11;102026.16;2002108;28;3589794;-72
2024/03/22 04:34:45;;;;;;;;;43.50;31.00;;;;;12.88;64.92;102028.84;2017551;28;2872103;-72
2024/03/22 04:35:58;;;;;;;;;44.20;34.80;;;;;12.89;65.36;102030.56;2016123;28;3587736;-72
2024/03/22 04:37:12;;;;;;;;;42.00;35.00;;;;;12.88;65.36;102027.97;1988342;28;3613093;-72
2024/03/22 04:38:23;;;;;;;;;40.50;33.00;;;;;12.82;65.34;102024.56;1989918;28;2860677;-72
2024/03/22 04:39:34;;;;;;;;;44.00;35.00;;;;;12.86;65.52;102029.78;1986827;28;2860693;-72
2024/03/22 04:40:45;;;;;;;;;39.50;34.50;;;;;12.82;65.08;102032.50;1978040;28;2851858;-72
2024/03/22 04:41:57;;;;;;;;;43.80;34.80;;;;;12.79;65.54;102026.44;2001209;28;3607518;-72
2024/03/22 04:43:09;;;;;;;;;47.40;37.00;;;;;12.80;65.35;102029.03;2011145;28;3605421;-72
2024/03/22 04:44:21;;;;;;;;;43.40;34.40;;;;;12.77;65.15;102028.19;2003502;28;3620045;-72
2024/03/22 04:45:33;;;;;;;;;48.40;36.80;;;;;12.75;65.56;102028.25;2009892;28;3614789;-72
2024/03/22 04:46:45;;;;;;;;;44.40;37.20;;;;;12.76;65.31;102026.47;2008041;28;3582521;-72
2024/03/22 04:47:57;;;;;;;;;44.00;33.33;;;;;12.71;65.32;102030.09;2001219;28;3622107;-72
2024/03/22 04:49:09;;;;;;;;;51.20;40.80;;;;;12.70;65.52;102027.47;1996512;28;3593930;-72
2024/03/22 04:50:21;;;;;;;;;50.67;39.67;;;;;12.70;65.44;102027.47;1997828;28;3613777;-72
2024/03/22 04:51:33;;;;;;;;;49.20;40.00;;;;;12.66;65.41;102021.41;2012363;28;3584583;-72
2024/03/22 04:52:44;;;;;;;;;40.80;31.80;;;;;12.67;65.82;102030.16;1987985;28;2880572;-72
2024/03/22 04:53:56;;;;;;;;;48.80;38.40;;;;;12.63;65.51;102034.66;2030919;28;3588768;-72
2024/03/22 04:55:08;;;;;;;;;50.60;40.00;;;;;12.63;65.91;102029.38;2036908;28;3587721;-72
2024/03/22 04:56:19;;;;;;;;;46.80;38.60;;;;;12.59;65.39;102028.56;2029648;28;3602354;-72
2024/03/22 04:57:31;;;;;;;;;48.00;36.67;;;;;12.58;65.58;102021.56;2008117;28;3598171;-72
2024/03/22 04:58:43;;;;;;;;;47.60;38.60;;;;;12.57;65.72;102029.50;2012238;28;3601268;-72
2024/03/22 04:59:55;;;;;;;;;44.40;32.40;;;;;12.54;65.57;102021.66;2009738;28;3615856;-71
2024/03/22 05:01:07;;;;;;;;;43.33;36.33;;;;;12.56;65.60;102026.00;2010417;28;3585039;-72
2024/03/22 05:02:19;;;;;;;;;43.80;34.80;;;;;12.51;65.73;102019.97;2003441;28;3590832;-72
2024/03/22 05:03:31;;;;;;;;;44.40;35.00;;;;;12.51;65.63;102030.50;2000128;28;3598609;-72
2024/03/22 05:04:43;;;;;;;;;45.20;34.80;;;;;12.49;65.58;102027.88;1999414;28;3610632;-72
2024/03/22 05:05:57;;;;;;;;;49.00;36.80;;;;;12.49;65.96;102030.50;2003361;28;3603352;-72
2024/03/22 05:07:07;;;;;;;;;41.00;33.00;;;;;12.45;65.90;102023.56;1987908;28;2873169;-72
2024/03/22 05:08:19;;;;;;;;;46.00;34.40;;;;;12.46;65.98;102024.44;2010596;28;3611658;-72
2024/03/22 05:09:32;;;;;;;;;38.60;32.80;;;;;12.45;65.92;102022.69;2013861;28;3581508;-72
2024/03/22 05:10:43;;;;;;;;;39.40;32.20;;;;;12.45;65.73;102015.66;2000704;28;3602302;-72
2024/03/22 05:11:55;;;;;;;;;39.20;34.40;;;;;12.43;66.12;102016.59;2005806;28;3591890;-72
2024/03/22 05:13:07;;;;;;;;;45.20;34.20;;;;;12.42;66.03;102014.88;2005190;28;3600219;-72
2024/03/22 05:14:20;;;;;;;;;44.80;35.40;;;;;12.41;66.25;102010.50;2014070;28;3600251;-72
2024/03/22 05:15:31;;;;;;;;;45.50;36.00;;;;;12.40;65.89;102016.66;1995905;28;2865890;-72
2024/03/22 05:16:43;;;;;;;;;38.00;31.00;;;;;12.38;65.93;102006.16;2000966;28;3576246;-72
2024/03/22 05:17:57;;;;;;;;;39.80;32.60;;;;;12.41;65.80;102015.75;2001430;28;3584612;-72
2024/03/22 05:19:08;;;;;;;;;41.50;33.00;;;;;12.37;66.08;102010.53;2009630;28;2850587;-72
2024/03/22 05:20:20;;;;;;;;;39.00;32.00;;;;;12.37;66.18;102010.53;2012141;28;3618266;-72